sensor_id;sensor_type;location;lat;lon;timestamp;P1;durP1;ratioP1;P2;durP2;ratioP2
23658;SDS011;12006;42.666;23.326;2023-03-03T00:01:43;3.93;;;3.50;;
23658;SDS011;12006;42.666;23.326;2023-03-03T00:04:08;4.27;;;3.30;;
23658;SDS011;12006;42.666;23.326;2023-03-03T00:06:34;3.93;;;3.53;;
23658;SDS011;12006;42.666;23.326;2023-03-03T00:08:59;3.90;;;3.50;;
23658;SDS011;12006;42.666;23.326;2023-03-03T00:11:25;3.67;;;3.33;;
23658;SDS011;12006;42.666;23.326;2023-03-03T00:13:51;3.77;;;3.37;;
23658;SDS011;12006;42.666;23.326;2023-03-03T00:16:23;3.73;;;3.43;;
23658;SDS011;12006;42.666;23.326;2023-03-03T00:19:14;4.40;;;3.63;;
23658;SDS011;12006;42.666;23.326;2023-03-03T00:21:44;4.23;;;3.83;;
23658;SDS011;12006;42.666;23.326;2023-03-03T00:26:39;4.30;;;3.67;;
23658;SDS011;12006;42.666;23.326;2023-03-03T00:31:55;5.00;;;4.50;;
23658;SDS011;12006;42.666;23.326;2023-03-03T00:34:34;4.30;;;3.90;;
23658;SDS011;12006;42.666;23.326;2023-03-03T00:37:00;3.90;;;3.50;;
23658;SDS011;12006;42.666;23.326;2023-03-03T00:39:33;5.77;;;4.33;;
23658;SDS011;12006;42.666;23.326;2023-03-03T00:42:01;5.30;;;4.53;;
23658;SDS011;12006;42.666;23.326;2023-03-03T00:52:35;5.43;;;4.93;;
23658;SDS011;12006;42.666;23.326;2023-03-03T00:55:09;6.03;;;5.10;;
23658;SDS011;12006;42.666;23.326;2023-03-03T00:57:36;5.47;;;4.97;;
23658;SDS011;12006;42.666;23.326;2023-03-03T01:00:01;4.50;;;4.10;;
23658;SDS011;12006;42.666;23.326;2023-03-03T01:02:27;5.30;;;4.80;;
23658;SDS011;12006;42.666;23.326;2023-03-03T01:04:52;5.37;;;4.87;;
23658;SDS011;12006;42.666;23.326;2023-03-03T01:07:20;5.60;;;5.10;;
23658;SDS011;12006;42.666;23.326;2023-03-03T01:09:46;5.43;;;4.93;;
23658;SDS011;12006;42.666;23.326;2023-03-03T01:12:11;5.80;;;4.93;;
23658;SDS011;12006;42.666;23.326;2023-03-03T01:14:37;5.00;;;4.43;;
23658;SDS011;12006;42.666;23.326;2023-03-03T01:17:03;5.67;;;4.83;;
23658;SDS011;12006;42.666;23.326;2023-03-03T01:19:29;5.87;;;4.57;;
23658;SDS011;12006;42.666;23.326;2023-03-03T01:21:55;4.80;;;4.33;;
23658;SDS011;12006;42.666;23.326;2023-03-03T01:24:21;5.23;;;4.47;;
23658;SDS011;12006;42.666;23.326;2023-03-03T01:26:46;4.67;;;4.23;;
23658;SDS011;12006;42.666;23.326;2023-03-03T01:29:11;4.80;;;4.40;;
23658;SDS011;12006;42.666;23.326;2023-03-03T01:31:37;5.10;;;4.60;;
23658;SDS011;12006;42.666;23.326;2023-03-03T01:34:02;5.00;;;4.47;;
23658;SDS011;12006;42.666;23.326;2023-03-03T01:36:28;5.20;;;4.70;;
23658;SDS011;12006;42.666;23.326;2023-03-03T01:38:53;5.33;;;4.70;;
23658;SDS011;12006;42.666;23.326;2023-03-03T01:41:19;5.80;;;4.93;;
23658;SDS011;12006;42.666;23.326;2023-03-03T01:43:46;4.90;;;4.40;;
23658;SDS011;12006;42.666;23.326;2023-03-03T01:48:47;6.27;;;5.07;;
23658;SDS011;12006;42.666;23.326;2023-03-03T01:51:16;6.00;;;4.93;;
23658;SDS011;12006;42.666;23.326;2023-03-03T01:53:55;5.33;;;4.53;;
23658;SDS011;12006;42.666;23.326;2023-03-03T01:56:23;5.47;;;4.40;;
23658;SDS011;12006;42.666;23.326;2023-03-03T01:58:58;5.70;;;5.03;;
23658;SDS011;12006;42.666;23.326;2023-03-03T02:01:28;4.77;;;4.27;;
23658;SDS011;12006;42.666;23.326;2023-03-03T02:03:55;5.57;;;5.00;;
23658;SDS011;12006;42.666;23.326;2023-03-03T02:06:22;5.47;;;4.77;;
23658;SDS011;12006;42.666;23.326;2023-03-03T02:08:53;5.77;;;5.17;;
23658;SDS011;12006;42.666;23.326;2023-03-03T02:11:22;5.40;;;4.60;;
23658;SDS011;12006;42.666;23.326;2023-03-03T02:13:48;6.10;;;4.57;;
23658;SDS011;12006;42.666;23.326;2023-03-03T02:16:13;5.20;;;4.70;;
23658;SDS011;12006;42.666;23.326;2023-03-03T02:18:39;5.20;;;4.70;;
23658;SDS011;12006;42.666;23.326;2023-03-03T02:21:11;5.53;;;4.63;;
23658;SDS011;12006;42.666;23.326;2023-03-03T02:26:33;4.90;;;4.40;;
23658;SDS011;12006;42.666;23.326;2023-03-03T02:29:01;4.53;;;4.10;;
23658;SDS011;12006;42.666;23.326;2023-03-03T02:31:27;6.33;;;4.97;;
23658;SDS011;12006;42.666;23.326;2023-03-03T02:33:53;5.30;;;4.77;;
23658;SDS011;12006;42.666;23.326;2023-03-03T02:36:21;4.97;;;4.43;;
23658;SDS011;12006;42.666;23.326;2023-03-03T02:39:02;4.97;;;4.10;;
23658;SDS011;12006;42.666;23.326;2023-03-03T02:44:25;5.20;;;4.60;;
23658;SDS011;12006;42.666;23.326;2023-03-03T02:46:53;5.37;;;4.87;;
23658;SDS011;12006;42.666;23.326;2023-03-03T02:49:23;4.87;;;4.27;;
23658;SDS011;12006;42.666;23.326;2023-03-03T02:51:57;5.43;;;4.80;;
23658;SDS011;12006;42.666;23.326;2023-03-03T02:54:24;5.53;;;5.03;;
23658;SDS011;12006;42.666;23.326;2023-03-03T02:56:51;7.77;;;5.83;;
23658;SDS011;12006;42.666;23.326;2023-03-03T02:59:17;6.07;;;5.40;;
23658;SDS011;12006;42.666;23.326;2023-03-03T03:01:42;4.97;;;4.47;;
23658;SDS011;12006;42.666;23.326;2023-03-03T03:04:09;5.63;;;4.93;;
23658;SDS011;12006;42.666;23.326;2023-03-03T03:06:39;6.57;;;4.70;;
23658;SDS011;12006;42.666;23.326;2023-03-03T03:09:05;12.17;;;5.20;;
23658;SDS011;12006;42.666;23.326;2023-03-03T03:11:32;6.93;;;5.90;;
23658;SDS011;12006;42.666;23.326;2023-03-03T03:13:59;5.33;;;4.83;;
23658;SDS011;12006;42.666;23.326;2023-03-03T03:16:25;6.67;;;5.53;;
23658;SDS011;12006;42.666;23.326;2023-03-03T03:18:50;6.60;;;5.77;;
23658;SDS011;12006;42.666;23.326;2023-03-03T03:21:16;7.13;;;6.03;;
23658;SDS011;12006;42.666;23.326;2023-03-03T03:23:42;6.97;;;6.27;;
23658;SDS011;12006;42.666;23.326;2023-03-03T03:26:07;7.20;;;6.43;;
23658;SDS011;12006;42.666;23.326;2023-03-03T03:28:33;6.80;;;6.10;;
23658;SDS011;12006;42.666;23.326;2023-03-03T03:31:00;6.63;;;6.00;;
23658;SDS011;12006;42.666;23.326;2023-03-03T03:33:26;7.03;;;6.00;;
23658;SDS011;12006;42.666;23.326;2023-03-03T03:35:55;7.40;;;6.30;;
23658;SDS011;12006;42.666;23.326;2023-03-03T03:38:21;6.83;;;5.90;;
23658;SDS011;12006;42.666;23.326;2023-03-03T03:40:47;6.87;;;6.10;;
23658;SDS011;12006;42.666;23.326;2023-03-03T03:43:12;7.30;;;5.70;;
23658;SDS011;12006;42.666;23.326;2023-03-03T03:45:38;7.30;;;6.30;;
23658;SDS011;12006;42.666;23.326;2023-03-03T03:48:06;8.63;;;6.40;;
23658;SDS011;12006;42.666;23.326;2023-03-03T03:50:32;9.23;;;7.53;;
23658;SDS011;12006;42.666;23.326;2023-03-03T03:52:57;8.73;;;7.20;;
23658;SDS011;12006;42.666;23.326;2023-03-03T03:55:23;9.83;;;7.17;;
23658;SDS011;12006;42.666;23.326;2023-03-03T03:57:48;8.10;;;6.60;;
23658;SDS011;12006;42.666;23.326;2023-03-03T04:00:14;8.77;;;7.00;;
23658;SDS011;12006;42.666;23.326;2023-03-03T04:02:39;9.20;;;7.50;;
23658;SDS011;12006;42.666;23.326;2023-03-03T04:05:05;8.60;;;7.33;;
23658;SDS011;12006;42.666;23.326;2023-03-03T04:07:31;8.47;;;7.60;;
23658;SDS011;12006;42.666;23.326;2023-03-03T04:09:57;9.20;;;8.00;;
23658;SDS011;12006;42.666;23.326;2023-03-03T04:12:22;10.27;;;8.77;;
23658;SDS011;12006;42.666;23.326;2023-03-03T04:14:47;8.50;;;7.57;;
23658;SDS011;12006;42.666;23.326;2023-03-03T04:17:16;10.83;;;8.27;;
23658;SDS011;12006;42.666;23.326;2023-03-03T04:19:46;8.97;;;8.07;;
23658;SDS011;12006;42.666;23.326;2023-03-03T04:22:11;9.87;;;8.73;;
23658;SDS011;12006;42.666;23.326;2023-03-03T04:24:38;12.07;;;8.77;;
23658;SDS011;12006;42.666;23.326;2023-03-03T04:27:04;9.00;;;7.67;;
23658;SDS011;12006;42.666;23.326;2023-03-03T04:29:30;10.83;;;9.33;;
23658;SDS011;12006;42.666;23.326;2023-03-03T04:31:55;9.53;;;8.17;;
23658;SDS011;12006;42.666;23.326;2023-03-03T04:34:21;9.50;;;8.47;;
23658;SDS011;12006;42.666;23.326;2023-03-03T04:36:46;9.23;;;8.23;;
23658;SDS011;12006;42.666;23.326;2023-03-03T04:39:11;10.80;;;8.33;;
23658;SDS011;12006;42.666;23.326;2023-03-03T04:41:37;10.40;;;8.77;;
23658;SDS011;12006;42.666;23.326;2023-03-03T04:44:02;10.10;;;9.00;;
23658;SDS011;12006;42.666;23.326;2023-03-03T04:46:28;9.47;;;8.17;;
23658;SDS011;12006;42.666;23.326;2023-03-03T04:48:53;10.10;;;8.73;;
23658;SDS011;12006;42.666;23.326;2023-03-03T04:51:19;11.07;;;8.90;;
23658;SDS011;12006;42.666;23.326;2023-03-03T04:53:44;9.57;;;8.37;;
23658;SDS011;12006;42.666;23.326;2023-03-03T04:56:10;9.67;;;8.60;;
23658;SDS011;12006;42.666;23.326;2023-03-03T04:58:35;9.90;;;8.63;;
23658;SDS011;12006;42.666;23.326;2023-03-03T05:01:02;10.83;;;9.00;;
23658;SDS011;12006;42.666;23.326;2023-03-03T05:03:27;11.00;;;9.07;;
23658;SDS011;12006;42.666;23.326;2023-03-03T05:05:52;12.83;;;9.90;;
23658;SDS011;12006;42.666;23.326;2023-03-03T05:08:18;13.47;;;10.13;;
23658;SDS011;12006;42.666;23.326;2023-03-03T05:10:43;13.57;;;9.97;;
23658;SDS011;12006;42.666;23.326;2023-03-03T05:13:09;12.87;;;10.03;;
23658;SDS011;12006;42.666;23.326;2023-03-03T05:15:34;14.17;;;9.90;;
23658;SDS011;12006;42.666;23.326;2023-03-03T05:18:00;12.23;;;9.90;;
23658;SDS011;12006;42.666;23.326;2023-03-03T05:20:26;12.77;;;10.20;;
23658;SDS011;12006;42.666;23.326;2023-03-03T05:22:51;12.47;;;9.63;;
23658;SDS011;12006;42.666;23.326;2023-03-03T05:25:17;10.93;;;9.17;;
23658;SDS011;12006;42.666;23.326;2023-03-03T05:27:43;12.10;;;9.67;;
23658;SDS011;12006;42.666;23.326;2023-03-03T05:30:09;13.27;;;10.37;;
23658;SDS011;12006;42.666;23.326;2023-03-03T05:32:35;13.60;;;10.00;;
23658;SDS011;12006;42.666;23.326;2023-03-03T05:35:01;11.80;;;10.37;;
23658;SDS011;12006;42.666;23.326;2023-03-03T05:37:27;11.70;;;8.93;;
23658;SDS011;12006;42.666;23.326;2023-03-03T05:39:53;12.20;;;9.63;;
23658;SDS011;12006;42.666;23.326;2023-03-03T05:42:18;12.60;;;9.83;;
23658;SDS011;12006;42.666;23.326;2023-03-03T05:44:44;12.17;;;10.40;;
23658;SDS011;12006;42.666;23.326;2023-03-03T05:47:09;12.50;;;9.13;;
23658;SDS011;12006;42.666;23.326;2023-03-03T05:49:35;12.80;;;10.37;;
23658;SDS011;12006;42.666;23.326;2023-03-03T05:52:00;12.80;;;9.70;;
23658;SDS011;12006;42.666;23.326;2023-03-03T05:54:26;11.80;;;9.20;;
23658;SDS011;12006;42.666;23.326;2023-03-03T05:56:51;12.57;;;9.77;;
23658;SDS011;12006;42.666;23.326;2023-03-03T05:59:17;12.93;;;9.97;;
23658;SDS011;12006;42.666;23.326;2023-03-03T06:01:43;12.23;;;10.13;;
23658;SDS011;12006;42.666;23.326;2023-03-03T06:04:09;12.17;;;9.87;;
23658;SDS011;12006;42.666;23.326;2023-03-03T06:06:34;13.40;;;10.00;;
23658;SDS011;12006;42.666;23.326;2023-03-03T06:09:00;13.63;;;11.23;;
23658;SDS011;12006;42.666;23.326;2023-03-03T06:11:25;15.70;;;11.13;;
23658;SDS011;12006;42.666;23.326;2023-03-03T06:13:51;15.00;;;11.43;;
23658;SDS011;12006;42.666;23.326;2023-03-03T06:16:16;13.40;;;10.37;;
23658;SDS011;12006;42.666;23.326;2023-03-03T06:18:42;12.03;;;10.43;;
23658;SDS011;12006;42.666;23.326;2023-03-03T06:21:07;14.17;;;10.53;;
23658;SDS011;12006;42.666;23.326;2023-03-03T06:23:32;13.50;;;11.43;;
23658;SDS011;12006;42.666;23.326;2023-03-03T06:25:58;16.20;;;12.70;;
23658;SDS011;12006;42.666;23.326;2023-03-03T06:28:23;14.67;;;11.23;;
23658;SDS011;12006;42.666;23.326;2023-03-03T06:30:51;14.67;;;11.60;;
23658;SDS011;12006;42.666;23.326;2023-03-03T06:33:18;14.60;;;11.83;;
23658;SDS011;12006;42.666;23.326;2023-03-03T06:35:47;13.20;;;11.23;;
23658;SDS011;12006;42.666;23.326;2023-03-03T06:38:13;14.50;;;11.67;;
23658;SDS011;12006;42.666;23.326;2023-03-03T06:40:39;15.43;;;11.87;;
23658;SDS011;12006;42.666;23.326;2023-03-03T06:43:04;14.73;;;11.50;;
23658;SDS011;12006;42.666;23.326;2023-03-03T06:45:29;15.00;;;11.47;;
23658;SDS011;12006;42.666;23.326;2023-03-03T06:47:55;16.73;;;12.07;;
23658;SDS011;12006;42.666;23.326;2023-03-03T06:50:20;13.20;;;11.53;;
23658;SDS011;12006;42.666;23.326;2023-03-03T06:52:45;15.00;;;12.00;;
23658;SDS011;12006;42.666;23.326;2023-03-03T06:55:12;13.80;;;11.97;;
23658;SDS011;12006;42.666;23.326;2023-03-03T06:57:46;13.87;;;11.17;;
23658;SDS011;12006;42.666;23.326;2023-03-03T07:02:49;12.23;;;10.93;;
23658;SDS011;12006;42.666;23.326;2023-03-03T07:05:21;11.53;;;10.33;;
23658;SDS011;12006;42.666;23.326;2023-03-03T07:07:50;14.23;;;11.20;;
23658;SDS011;12006;42.666;23.326;2023-03-03T07:10:19;12.80;;;9.83;;
23658;SDS011;12006;42.666;23.326;2023-03-03T07:12:47;12.80;;;9.83;;
23658;SDS011;12006;42.666;23.326;2023-03-03T07:15:15;12.53;;;9.57;;
23658;SDS011;12006;42.666;23.326;2023-03-03T07:17:45;8.90;;;7.93;;
23658;SDS011;12006;42.666;23.326;2023-03-03T07:20:23;10.13;;;8.03;;
23658;SDS011;12006;42.666;23.326;2023-03-03T07:22:56;10.73;;;8.40;;
23658;SDS011;12006;42.666;23.326;2023-03-03T07:27:51;10.47;;;8.53;;
23658;SDS011;12006;42.666;23.326;2023-03-03T07:30:25;12.87;;;9.63;;
23658;SDS011;12006;42.666;23.326;2023-03-03T07:32:56;10.23;;;8.70;;
23658;SDS011;12006;42.666;23.326;2023-03-03T07:35:36;14.33;;;10.00;;
23658;SDS011;12006;42.666;23.326;2023-03-03T07:38:39;11.00;;;9.20;;
23658;SDS011;12006;42.666;23.326;2023-03-03T07:41:05;12.00;;;10.17;;
23658;SDS011;12006;42.666;23.326;2023-03-03T07:43:36;13.33;;;10.20;;
23658;SDS011;12006;42.666;23.326;2023-03-03T07:48:39;11.40;;;9.60;;
23658;SDS011;12006;42.666;23.326;2023-03-03T07:51:14;10.47;;;9.00;;
23658;SDS011;12006;42.666;23.326;2023-03-03T07:53:46;12.60;;;9.83;;
23658;SDS011;12006;42.666;23.326;2023-03-03T07:56:28;10.83;;;9.20;;
23658;SDS011;12006;42.666;23.326;2023-03-03T07:58:58;10.70;;;8.53;;
23658;SDS011;12006;42.666;23.326;2023-03-03T08:03:58;9.63;;;8.63;;
23658;SDS011;12006;42.666;23.326;2023-03-03T08:09:28;10.60;;;9.50;;
23658;SDS011;12006;42.666;23.326;2023-03-03T08:14:33;10.90;;;9.80;;
23658;SDS011;12006;42.666;23.326;2023-03-03T08:16:59;11.53;;;9.80;;
23658;SDS011;12006;42.666;23.326;2023-03-03T08:19:26;10.77;;;9.53;;
23658;SDS011;12006;42.666;23.326;2023-03-03T08:22:08;11.50;;;10.30;;
23658;SDS011;12006;42.666;23.326;2023-03-03T08:24:38;10.90;;;9.80;;
23658;SDS011;12006;42.666;23.326;2023-03-03T08:27:04;12.43;;;9.80;;
23658;SDS011;12006;42.666;23.326;2023-03-03T08:29:29;12.13;;;10.23;;
23658;SDS011;12006;42.666;23.326;2023-03-03T08:31:55;12.33;;;10.73;;
23658;SDS011;12006;42.666;23.326;2023-03-03T08:34:20;13.13;;;10.33;;
23658;SDS011;12006;42.666;23.326;2023-03-03T08:36:45;13.07;;;10.47;;
23658;SDS011;12006;42.666;23.326;2023-03-03T08:39:11;12.73;;;10.33;;
23658;SDS011;12006;42.666;23.326;2023-03-03T08:41:37;14.27;;;11.37;;
23658;SDS011;12006;42.666;23.326;2023-03-03T08:44:04;13.40;;;11.43;;
23658;SDS011;12006;42.666;23.326;2023-03-03T08:46:30;15.80;;;11.53;;
23658;SDS011;12006;42.666;23.326;2023-03-03T08:48:56;15.10;;;11.53;;
23658;SDS011;12006;42.666;23.326;2023-03-03T08:51:21;15.73;;;12.53;;
23658;SDS011;12006;42.666;23.326;2023-03-03T08:53:46;15.43;;;11.17;;
23658;SDS011;12006;42.666;23.326;2023-03-03T08:56:13;15.57;;;12.00;;
23658;SDS011;12006;42.666;23.326;2023-03-03T08:58:39;13.13;;;10.87;;
23658;SDS011;12006;42.666;23.326;2023-03-03T09:01:06;13.37;;;10.70;;
23658;SDS011;12006;42.666;23.326;2023-03-03T09:03:31;15.80;;;11.20;;
23658;SDS011;12006;42.666;23.326;2023-03-03T09:05:56;14.67;;;11.80;;
23658;SDS011;12006;42.666;23.326;2023-03-03T09:08:22;13.73;;;11.20;;
23658;SDS011;12006;42.666;23.326;2023-03-03T09:10:47;15.13;;;11.40;;
23658;SDS011;12006;42.666;23.326;2023-03-03T09:13:13;12.90;;;11.03;;
23658;SDS011;12006;42.666;23.326;2023-03-03T09:15:40;13.00;;;10.27;;
23658;SDS011;12006;42.666;23.326;2023-03-03T09:18:12;12.00;;;10.00;;
23658;SDS011;12006;42.666;23.326;2023-03-03T09:20:44;12.90;;;10.40;;
23658;SDS011;12006;42.666;23.326;2023-03-03T09:28:50;12.87;;;9.60;;
23658;SDS011;12006;42.666;23.326;2023-03-03T09:34:18;15.13;;;10.73;;
23658;SDS011;12006;42.666;23.326;2023-03-03T09:36:47;13.27;;;10.57;;
23658;SDS011;12006;42.666;23.326;2023-03-03T09:50:29;11.33;;;9.47;;
23658;SDS011;12006;42.666;23.326;2023-03-03T09:59:27;11.57;;;8.90;;
23658;SDS011;12006;42.666;23.326;2023-03-03T10:02:13;10.43;;;8.97;;
23658;SDS011;12006;42.666;23.326;2023-03-03T10:08:18;10.00;;;8.93;;
23658;SDS011;12006;42.666;23.326;2023-03-03T10:16:38;8.47;;;7.53;;
23658;SDS011;12006;42.666;23.326;2023-03-03T10:35:22;11.00;;;9.90;;
23658;SDS011;12006;42.666;23.326;2023-03-03T10:43:13;10.23;;;8.77;;
23658;SDS011;12006;42.666;23.326;2023-03-03T10:53:57;11.67;;;9.63;;
23658;SDS011;12006;42.666;23.326;2023-03-03T11:01:58;11.73;;;10.47;;
23658;SDS011;12006;42.666;23.326;2023-03-03T11:07:25;13.23;;;11.10;;
23658;SDS011;12006;42.666;23.326;2023-03-03T11:10:04;13.83;;;11.73;;
23658;SDS011;12006;42.666;23.326;2023-03-03T11:21:12;15.07;;;11.83;;
23658;SDS011;12006;42.666;23.326;2023-03-03T11:31:29;16.10;;;13.47;;
23658;SDS011;12006;42.666;23.326;2023-03-03T11:36:33;16.30;;;13.27;;
23658;SDS011;12006;42.666;23.326;2023-03-03T11:39:19;16.97;;;13.17;;
23658;SDS011;12006;42.666;23.326;2023-03-03T11:45:15;17.30;;;13.90;;
23658;SDS011;12006;42.666;23.326;2023-03-03T11:55:30;22.67;;;18.47;;
23658;SDS011;12006;42.666;23.326;2023-03-03T12:11:33;24.43;;;19.10;;
23658;SDS011;12006;42.666;23.326;2023-03-03T12:16:45;20.87;;;17.90;;
23658;SDS011;12006;42.666;23.326;2023-03-03T12:24:50;22.90;;;17.57;;
23658;SDS011;12006;42.666;23.326;2023-03-03T12:36:15;19.17;;;17.17;;
23658;SDS011;12006;42.666;23.326;2023-03-03T12:41:55;15.20;;;13.60;;
23658;SDS011;12006;42.666;23.326;2023-03-03T12:44:48;16.07;;;14.37;;
23658;SDS011;12006;42.666;23.326;2023-03-03T13:01:37;18.50;;;16.07;;
23658;SDS011;12006;42.666;23.326;2023-03-03T13:22:49;12.33;;;10.80;;
23658;SDS011;12006;42.666;23.326;2023-03-03T13:28:05;12.40;;;10.17;;
23658;SDS011;12006;42.666;23.326;2023-03-03T13:30:39;12.40;;;11.10;;
23658;SDS011;12006;42.666;23.326;2023-03-03T13:35:58;10.13;;;9.13;;
23658;SDS011;12006;42.666;23.326;2023-03-03T13:38:31;9.50;;;8.60;;
23658;SDS011;12006;42.666;23.326;2023-03-03T13:43:31;9.17;;;8.27;;
23658;SDS011;12006;42.666;23.326;2023-03-03T13:46:10;11.03;;;9.93;;
23658;SDS011;12006;42.666;23.326;2023-03-03T13:49:01;10.47;;;9.37;;
23658;SDS011;12006;42.666;23.326;2023-03-03T13:51:41;10.17;;;9.17;;
23658;SDS011;12006;42.666;23.326;2023-03-03T13:57:24;10.23;;;9.13;;
23658;SDS011;12006;42.666;23.326;2023-03-03T13:59:53;9.90;;;8.90;;
23658;SDS011;12006;42.666;23.326;2023-03-03T14:05:30;10.53;;;9.47;;
23658;SDS011;12006;42.666;23.326;2023-03-03T14:08:09;11.40;;;10.27;;
23658;SDS011;12006;42.666;23.326;2023-03-03T14:10:48;12.33;;;10.93;;
23658;SDS011;12006;42.666;23.326;2023-03-03T14:13:28;11.47;;;10.40;;
23658;SDS011;12006;42.666;23.326;2023-03-03T14:18:36;11.43;;;10.33;;
23658;SDS011;12006;42.666;23.326;2023-03-03T14:21:10;11.80;;;10.60;;
23658;SDS011;12006;42.666;23.326;2023-03-03T14:23:53;11.30;;;9.90;;
23658;SDS011;12006;42.666;23.326;2023-03-03T14:26:28;11.27;;;10.13;;
23658;SDS011;12006;42.666;23.326;2023-03-03T14:29:03;11.97;;;10.77;;
23658;SDS011;12006;42.666;23.326;2023-03-03T14:31:43;10.60;;;9.60;;
23658;SDS011;12006;42.666;23.326;2023-03-03T14:36:50;11.70;;;10.50;;
23658;SDS011;12006;42.666;23.326;2023-03-03T14:41:54;11.10;;;10.00;;
23658;SDS011;12006;42.666;23.326;2023-03-03T14:47:35;10.37;;;9.27;;
23658;SDS011;12006;42.666;23.326;2023-03-03T14:49:45;11.00;;;9.90;;
23658;SDS011;12006;42.666;23.326;2023-03-03T14:54:49;10.97;;;9.27;;
23658;SDS011;12006;42.666;23.326;2023-03-03T14:59:59;9.27;;;8.40;;
23658;SDS011;12006;42.666;23.326;2023-03-03T15:05:26;7.50;;;6.80;;
23658;SDS011;12006;42.666;23.326;2023-03-03T15:07:57;7.90;;;7.20;;
23658;SDS011;12006;42.666;23.326;2023-03-03T15:10:40;8.27;;;7.20;;
23658;SDS011;12006;42.666;23.326;2023-03-03T15:13:23;8.63;;;7.83;;
23658;SDS011;12006;42.666;23.326;2023-03-03T15:18:24;10.17;;;9.17;;
23658;SDS011;12006;42.666;23.326;2023-03-03T15:21:24;10.47;;;9.47;;
23658;SDS011;12006;42.666;23.326;2023-03-03T15:26:42;10.07;;;9.13;;
23658;SDS011;12006;42.666;23.326;2023-03-03T15:29:36;11.33;;;10.30;;
23658;SDS011;12006;42.666;23.326;2023-03-03T15:54:13;10.70;;;9.80;;
23658;SDS011;12006;42.666;23.326;2023-03-03T16:05:24;10.83;;;9.77;;
23658;SDS011;12006;42.666;23.326;2023-03-03T16:10:51;10.77;;;9.67;;
23658;SDS011;12006;42.666;23.326;2023-03-03T16:19:12;10.63;;;9.43;;
23658;SDS011;12006;42.666;23.326;2023-03-03T16:22:03;10.30;;;9.30;;
23658;SDS011;12006;42.666;23.326;2023-03-03T16:44:15;10.00;;;9.00;;
23658;SDS011;12006;42.666;23.326;2023-03-03T16:46:55;10.47;;;9.57;;
23658;SDS011;12006;42.666;23.326;2023-03-03T16:49:54;10.00;;;9.00;;
23658;SDS011;12006;42.666;23.326;2023-03-03T16:52:45;11.10;;;9.87;;
23658;SDS011;12006;42.666;23.326;2023-03-03T16:55:24;11.00;;;9.90;;
23658;SDS011;12006;42.666;23.326;2023-03-03T16:58:01;11.87;;;10.77;;
23658;SDS011;12006;42.666;23.326;2023-03-03T17:00:41;12.30;;;11.13;;
23658;SDS011;12006;42.666;23.326;2023-03-03T17:06:27;13.57;;;12.17;;
23658;SDS011;12006;42.666;23.326;2023-03-03T17:11:51;13.00;;;11.40;;
23658;SDS011;12006;42.666;23.326;2023-03-03T17:17:41;11.90;;;10.70;;
23658;SDS011;12006;42.666;23.326;2023-03-03T17:20:14;11.67;;;10.47;;
23658;SDS011;12006;42.666;23.326;2023-03-03T17:31:07;11.53;;;10.33;;
23658;SDS011;12006;42.666;23.326;2023-03-03T17:36:15;11.23;;;10.13;;
23658;SDS011;12006;42.666;23.326;2023-03-03T17:41:33;11.10;;;10.00;;
23658;SDS011;12006;42.666;23.326;2023-03-03T17:46:44;11.27;;;10.17;;
23658;SDS011;12006;42.666;23.326;2023-03-03T18:08:04;12.20;;;11.00;;
23658;SDS011;12006;42.666;23.326;2023-03-03T18:10:41;14.50;;;12.87;;
23658;SDS011;12006;42.666;23.326;2023-03-03T18:22:04;14.20;;;12.63;;
23658;SDS011;12006;42.666;23.326;2023-03-03T18:24:38;15.13;;;12.73;;
23658;SDS011;12006;42.666;23.326;2023-03-03T18:37:57;11.50;;;8.87;;
23658;SDS011;12006;42.666;23.326;2023-03-03T18:48:50;12.80;;;10.73;;
23658;SDS011;12006;42.666;23.326;2023-03-03T19:04:47;13.60;;;12.07;;
23658;SDS011;12006;42.666;23.326;2023-03-03T19:07:24;14.37;;;12.43;;
23658;SDS011;12006;42.666;23.326;2023-03-03T19:10:00;15.13;;;12.30;;
23658;SDS011;12006;42.666;23.326;2023-03-03T19:18:31;12.23;;;10.80;;
23658;SDS011;12006;42.666;23.326;2023-03-03T19:20:53;12.67;;;11.37;;
23658;SDS011;12006;42.666;23.326;2023-03-03T19:23:48;14.13;;;12.53;;
23658;SDS011;12006;42.666;23.326;2023-03-03T19:28:51;14.67;;;12.67;;
23658;SDS011;12006;42.666;23.326;2023-03-03T19:31:40;13.07;;;11.73;;
23658;SDS011;12006;42.666;23.326;2023-03-03T19:39:34;12.07;;;10.17;;
23658;SDS011;12006;42.666;23.326;2023-03-03T19:47:42;14.33;;;12.83;;
23658;SDS011;12006;42.666;23.326;2023-03-03T20:07:47;18.63;;;16.67;;
23658;SDS011;12006;42.666;23.326;2023-03-03T20:16:16;14.53;;;13.03;;
23658;SDS011;12006;42.666;23.326;2023-03-03T20:21:35;11.87;;;10.57;;
23658;SDS011;12006;42.666;23.326;2023-03-03T20:37:48;11.97;;;10.40;;
23658;SDS011;12006;42.666;23.326;2023-03-03T20:48:45;8.90;;;8.10;;
23658;SDS011;12006;42.666;23.326;2023-03-03T20:51:24;7.67;;;6.53;;
23658;SDS011;12006;42.666;23.326;2023-03-03T20:53:58;7.63;;;6.57;;
23658;SDS011;12006;42.666;23.326;2023-03-03T21:02:25;6.93;;;6.20;;
23658;SDS011;12006;42.666;23.326;2023-03-03T21:05:07;7.33;;;6.53;;
23658;SDS011;12006;42.666;23.326;2023-03-03T21:07:51;7.70;;;7.00;;
23658;SDS011;12006;42.666;23.326;2023-03-03T21:10:25;7.47;;;6.70;;
23658;SDS011;12006;42.666;23.326;2023-03-03T21:12:53;8.47;;;6.70;;
23658;SDS011;12006;42.666;23.326;2023-03-03T21:15:30;7.70;;;6.90;;
23658;SDS011;12006;42.666;23.326;2023-03-03T21:17:58;7.97;;;7.17;;
23658;SDS011;12006;42.666;23.326;2023-03-03T21:20:26;7.80;;;7.00;;
23658;SDS011;12006;42.666;23.326;2023-03-03T21:22:54;8.10;;;7.10;;
23658;SDS011;12006;42.666;23.326;2023-03-03T21:28:38;9.77;;;8.10;;
23658;SDS011;12006;42.666;23.326;2023-03-03T21:31:08;8.87;;;7.57;;
23658;SDS011;12006;42.666;23.326;2023-03-03T21:33:42;10.83;;;8.57;;
23658;SDS011;12006;42.666;23.326;2023-03-03T21:36:22;12.07;;;10.40;;
23658;SDS011;12006;42.666;23.326;2023-03-03T21:39:27;13.03;;;10.30;;
23658;SDS011;12006;42.666;23.326;2023-03-03T21:41:54;12.00;;;10.63;;
23658;SDS011;12006;42.666;23.326;2023-03-03T21:46:58;12.33;;;10.67;;
23658;SDS011;12006;42.666;23.326;2023-03-03T21:49:24;13.17;;;11.77;;
23658;SDS011;12006;42.666;23.326;2023-03-03T21:51:50;15.57;;;12.20;;
23658;SDS011;12006;42.666;23.326;2023-03-03T21:54:15;14.47;;;12.20;;
23658;SDS011;12006;42.666;23.326;2023-03-03T21:56:40;11.77;;;10.57;;
23658;SDS011;12006;42.666;23.326;2023-03-03T21:59:06;13.37;;;11.97;;
23658;SDS011;12006;42.666;23.326;2023-03-03T22:01:33;15.40;;;12.23;;
23658;SDS011;12006;42.666;23.326;2023-03-03T22:03:59;13.50;;;12.10;;
23658;SDS011;12006;42.666;23.326;2023-03-03T22:06:24;15.87;;;12.80;;
23658;SDS011;12006;42.666;23.326;2023-03-03T22:08:50;15.90;;;12.10;;
23658;SDS011;12006;42.666;23.326;2023-03-03T22:11:15;12.83;;;11.50;;
23658;SDS011;12006;42.666;23.326;2023-03-03T22:13:41;13.17;;;10.80;;
23658;SDS011;12006;42.666;23.326;2023-03-03T22:16:06;13.73;;;11.50;;
23658;SDS011;12006;42.666;23.326;2023-03-03T22:18:32;12.37;;;11.07;;
23658;SDS011;12006;42.666;23.326;2023-03-03T22:20:57;13.87;;;11.00;;
23658;SDS011;12006;42.666;23.326;2023-03-03T22:23:23;13.10;;;10.83;;
23658;SDS011;12006;42.666;23.326;2023-03-03T22:25:49;10.80;;;9.70;;
23658;SDS011;12006;42.666;23.326;2023-03-03T22:28:15;15.53;;;11.13;;